Time;durP1;ratioP1;P1;durP2;ratioP2;P2;SDS_P1;SDS_P2;PMS_P1;PMS_P2;Temp;Humidity;BMP_temperature;BMP_pressure;BME280_temperature;BME280_humidity;BME280_pressure;Samples;Min_cycle;Max_cycle;Signal;HPM_P1;HPM_P2
2022/07/28 00:00:35;;;;;;;15.82;11.18;;;;;;;;;;5031996;28;20037;-78
2022/07/28 00:03:01;;;;;;;19.27;11.43;;;;;;;;;;5041140;28;20400;-76
2022/07/28 00:05:28;;;;;;;17.17;11.45;;;;;;;;;;5033193;28;20164;-76
2022/07/28 00:07:55;;;;;;;12.65;10.35;;;;;;;;;;5031485;28;20033;-79
2022/07/28 00:10:21;;;;;;;13.55;10.27;;;;;;;;;;5031661;28;20037;-74
2022/07/28 00:12:47;;;;;;;12.23;10.90;;;;;;;;;;5031460;28;20109;-75
2022/07/28 00:15:13;;;;;;;14.48;10.95;;;;;;;;;;5042333;28;20017;-75
2022/07/28 00:17:39;;;;;;;13.98;10.73;;;;;;;;;;5051161;28;20112;-77
2022/07/28 00:20:06;;;;;;;17.75;10.65;;;;;;;;;;5051210;28;20473;-75
2022/07/28 00:22:32;;;;;;;15.88;11.13;;;;;;;;;;5051193;28;20454;-76
2022/07/28 00:24:58;;;;;;;18.63;11.45;;;;;;;;;;5051284;28;20037;-75
2022/07/28 00:27:24;;;;;;;16.83;10.35;;;;;;;;;;5051434;28;20116;-74
2022/07/28 00:29:50;;;;;;;16.60;12.20;;;;;;;;;;5033106;28;20036;-72
2022/07/28 00:32:19;;;;;;;16.98;11.35;;;;;;;;;;5051364;28;20033;-76
2022/07/28 00:34:45;;;;;;;19.52;11.27;;;;;;;;;;5043561;28;20443;-75
2022/07/28 00:37:11;;;;;;;15.18;11.07;;;;;;;;;;5031310;28;20040;-75
2022/07/28 00:39:37;;;;;;;14.52;11.15;;;;;;;;;;5031420;28;20038;-75
2022/07/28 00:42:03;;;;;;;16.38;11.95;;;;;;;;;;5031292;28;20041;-74
2022/07/28 00:44:29;;;;;;;21.23;11.80;;;;;;;;;;5031305;28;20060;-75
2022/07/28 00:46:55;;;;;;;16.33;12.23;;;;;;;;;;5031406;28;20130;-76
2022/07/28 00:49:21;;;;;;;24.38;11.90;;;;;;;;;;5031511;28;20034;-76
2022/07/28 00:51:47;;;;;;;17.25;13.00;;;;;;;;;;5031479;28;20164;-75
2022/07/28 00:54:13;;;;;;;14.02;11.50;;;;;;;;;;5016188;28;20400;-76
2022/07/28 00:56:39;;;;;;;14.93;11.68;;;;;;;;;;5032202;28;20037;-75
2022/07/28 00:59:05;;;;;;;14.18;11.48;;;;;;;;;;5031348;28;20056;-76
2022/07/28 01:01:31;;;;;;;15.45;11.23;;;;;;;;;;5031257;28;20036;-76
2022/07/28 01:04:01;;;;;;;15.70;12.55;;;;;;;;;;5031632;28;20042;-75
2022/07/28 01:06:30;;;;;;;20.15;11.50;;;;;;;;;;5034815;28;20038;-73
2022/07/28 01:09:05;;;;;;;14.95;11.75;;;;;;;;;;5034837;28;20033;-74
2022/07/28 01:11:43;;;;;;;16.00;10.98;;;;;;;;;;5034891;28;20033;-72
2022/07/28 01:14:36;;;;;;;21.08;12.85;;;;;;;;;;5034763;28;20041;-74
2022/07/28 01:17:15;;;;;;;16.20;11.10;;;;;;;;;;5034680;28;20144;-72
2022/07/28 01:20:04;;;;;;;13.93;10.95;;;;;;;;;;5034600;28;20488;-73
2022/07/28 01:22:37;;;;;;;16.30;12.43;;;;;;;;;;5034379;28;20033;-72
2022/07/28 01:25:33;;;;;;;20.30;12.55;;;;;;;;;;5034192;28;20163;-73
2022/07/28 01:28:07;;;;;;;21.15;13.23;;;;;;;;;;5034598;28;20063;-74
2022/07/28 01:30:46;;;;;;;17.67;12.23;;;;;;;;;;5040670;28;20484;-76
2022/07/28 01:33:24;;;;;;;18.92;13.18;;;;;;;;;;5043848;28;20033;-74
2022/07/28 01:36:05;;;;;;;20.58;12.65;;;;;;;;;;5054409;28;20029;-74
2022/07/28 01:38:34;;;;;;;17.83;12.90;;;;;;;;;;5054327;28;20037;-75
2022/07/28 01:41:02;;;;;;;18.65;12.23;;;;;;;;;;5054090;28;20040;-73
2022/07/28 01:43:32;;;;;;;16.85;12.18;;;;;;;;;;5053869;28;20037;-75
2022/07/28 01:46:00;;;;;;;17.85;12.90;;;;;;;;;;5053949;28;20629;-75
2022/07/28 01:48:27;;;;;;;16.48;11.27;;;;;;;;;;5054100;28;20475;-74
2022/07/28 01:50:55;;;;;;;19.10;12.45;;;;;;;;;;5054218;28;20503;-71
2022/07/28 01:53:23;;;;;;;17.67;12.48;;;;;;;;;;5036091;28;20131;-73
2022/07/28 01:55:51;;;;;;;17.67;11.93;;;;;;;;;;5054050;28;20088;-74
2022/07/28 01:58:21;;;;;;;16.98;11.63;;;;;;;;;;5054039;28;20037;-74
2022/07/28 02:00:49;;;;;;;16.88;12.02;;;;;;;;;;5035613;28;20549;-74
2022/07/28 02:03:17;;;;;;;15.30;12.30;;;;;;;;;;5053137;28;20033;-73
2022/07/28 02:05:49;;;;;;;15.27;12.63;;;;;;;;;;5053677;28;20033;-75
2022/07/28 02:08:18;;;;;;;16.08;13.00;;;;;;;;;;5049585;28;20040;-74
2022/07/28 02:11:38;;;;;;;19.63;12.23;;;;;;;;;;5033812;28;20037;-74
2022/07/28 02:13:33;;;;;;;21.48;13.20;;;;;;;;;;5038430;28;20448;-74
2022/07/28 02:16:01;;;;;;;18.98;12.30;;;;;;;;;;5034206;28;20606;-74
2022/07/28 02:18:28;;;;;;;19.75;12.98;;;;;;;;;;5043085;28;20483;-74
2022/07/28 02:20:54;;;;;;;22.33;12.85;;;;;;;;;;5053199;28;20033;-75
2022/07/28 02:23:22;;;;;;;20.23;11.55;;;;;;;;;;5053094;28;20072;-74
2022/07/28 02:25:50;;;;;;;15.95;11.73;;;;;;;;;;5053371;28;20111;-73
2022/07/28 02:28:20;;;;;;;17.00;11.65;;;;;;;;;;5053286;28;20033;-73
2022/07/28 02:30:52;;;;;;;24.80;12.57;;;;;;;;;;5052926;28;20041;-74
2022/07/28 02:33:21;;;;;;;17.13;12.23;;;;;;;;;;5053464;28;20585;-74
2022/07/28 02:36:06;;;;;;;13.57;11.68;;;;;;;;;;5053000;28;20033;-73
2022/07/28 02:38:40;;;;;;;14.50;11.90;;;;;;;;;;5052741;28;20460;-73
2022/07/28 02:41:26;;;;;;;21.23;12.23;;;;;;;;;;5053094;28;20121;-74
2022/07/28 02:43:55;;;;;;;14.90;11.98;;;;;;;;;;5052756;28;20036;-74
2022/07/28 02:46:26;;;;;;;15.63;12.70;;;;;;;;;;5052820;28;20044;-73
2022/07/28 02:48:59;;;;;;;15.75;12.02;;;;;;;;;;5052824;28;20051;-73
2022/07/28 02:51:28;;;;;;;30.38;13.15;;;;;;;;;;5052874;28;20029;-74
2022/07/28 02:53:54;;;;;;;22.08;12.57;;;;;;;;;;5052452;28;20112;-73
2022/07/28 02:56:21;;;;;;;20.30;12.90;;;;;;;;;;5052842;28;20104;-74
2022/07/28 02:58:49;;;;;;;19.98;12.90;;;;;;;;;;5052774;28;20036;-75
2022/07/28 03:01:19;;;;;;;22.83;13.48;;;;;;;;;;5046014;28;20029;-74
2022/07/28 03:03:49;;;;;;;25.38;15.00;;;;;;;;;;5052387;28;20085;-75
2022/07/28 03:06:21;;;;;;;22.88;13.30;;;;;;;;;;5052103;28;20069;-75
2022/07/28 03:08:49;;;;;;;16.58;12.48;;;;;;;;;;5052450;28;20039;-73
2022/07/28 03:11:15;;;;;;;17.52;11.85;;;;;;;;;;5052581;28;20425;-75
2022/07/28 03:13:41;;;;;;;15.77;12.85;;;;;;;;;;5052259;28;20087;-74
2022/07/28 03:16:07;;;;;;;21.13;12.63;;;;;;;;;;5051257;28;20029;-74
2022/07/28 03:18:34;;;;;;;23.00;13.98;;;;;;;;;;5052311;28;20033;-74
2022/07/28 03:21:00;;;;;;;20.65;12.07;;;;;;;;;;5052255;28;20115;-74
2022/07/28 03:23:40;;;;;;;15.75;12.32;;;;;;;;;;5041637;28;20388;-72
2022/07/28 03:26:20;;;;;;;19.05;12.43;;;;;;;;;;5032054;28;20104;-74
2022/07/28 03:28:47;;;;;;;17.73;12.93;;;;;;;;;;5044378;28;20037;-74
2022/07/28 03:31:14;;;;;;;18.50;12.68;;;;;;;;;;5051829;28;20107;-74
2022/07/28 03:33:41;;;;;;;21.08;13.02;;;;;;;;;;5034159;28;20388;-75
2022/07/28 03:36:12;;;;;;;20.08;12.63;;;;;;;;;;5051879;28;20035;-74
2022/07/28 03:38:43;;;;;;;17.17;13.30;;;;;;;;;;5051993;28;20036;-74
2022/07/28 03:41:10;;;;;;;18.00;12.93;;;;;;;;;;5058080;28;20042;-72
2022/07/28 03:43:37;;;;;;;17.67;12.45;;;;;;;;;;5056300;28;20032;-74
2022/07/28 03:46:03;;;;;;;18.30;13.30;;;;;;;;;;5053040;28;20028;-74
2022/07/28 03:48:30;;;;;;;19.17;12.13;;;;;;;;;;5067263;28;20028;-74
2022/07/28 03:50:57;;;;;;;14.57;11.10;;;;;;;;;;5071920;28;20032;-73
2022/07/28 03:53:26;;;;;;;16.20;11.18;;;;;;;;;;5071446;28;20028;-72
2022/07/28 03:55:53;;;;;;;14.10;11.50;;;;;;;;;;5071572;28;20116;-73
2022/07/28 03:58:25;;;;;;;15.02;11.60;;;;;;;;;;5071199;28;20118;-73
2022/07/28 04:00:51;;;;;;;23.50;12.52;;;;;;;;;;5071541;28;20076;-74
2022/07/28 04:03:18;;;;;;;17.85;11.57;;;;;;;;;;5071334;28;20059;-74
2022/07/28 04:05:45;;;;;;;24.63;12.32;;;;;;;;;;5053499;28;20033;-73
2022/07/28 04:08:12;;;;;;;23.00;12.32;;;;;;;;;;5071520;28;20028;-73
2022/07/28 04:10:38;;;;;;;21.30;11.93;;;;;;;;;;5071571;28;20058;-74
2022/07/28 04:13:04;;;;;;;13.57;10.02;;;;;;;;;;5071114;28;20108;-73
2022/07/28 04:15:31;;;;;;;22.33;11.82;;;;;;;;;;5068411;28;20496;-73
2022/07/28 04:17:58;;;;;;;16.92;10.90;;;;;;;;;;5064364;28;20040;-74
2022/07/28 04:20:26;;;;;;;15.30;10.30;;;;;;;;;;5051222;28;20025;-74
2022/07/28 04:22:54;;;;;;;17.13;10.73;;;;;;;;;;5050889;28;20536;-74
2022/07/28 04:25:22;;;;;;;18.42;11.20;;;;;;;;;;5050715;28;20087;-74
2022/07/28 04:27:48;;;;;;;18.85;10.27;;;;;;;;;;5050961;28;20036;-74
2022/07/28 04:30:16;;;;;;;18.27;9.50;;;;;;;;;;5050801;28;20091;-74
2022/07/28 04:32:47;;;;;;;15.57;9.15;;;;;;;;;;5048720;28;20047;-75
2022/07/28 04:35:15;;;;;;;15.45;10.02;;;;;;;;;;5061798;28;20040;-76
2022/07/28 04:37:41;;;;;;;16.13;10.05;;;;;;;;;;5069254;28;20041;-77
2022/07/28 04:40:09;;;;;;;16.95;9.77;;;;;;;;;;5071185;28;20051;-75
2022/07/28 04:42:37;;;;;;;16.95;9.68;;;;;;;;;;5071981;28;20116;-75
2022/07/28 04:45:07;;;;;;;14.10;9.27;;;;;;;;;;5072213;28;20487;-75
2022/07/28 04:47:34;;;;;;;16.13;9.40;;;;;;;;;;5069588;28;20384;-76
2022/07/28 04:50:00;;;;;;;12.38;7.97;;;;;;;;;;5054160;28;20391;-76
2022/07/28 04:52:26;;;;;;;13.55;7.65;;;;;;;;;;5053706;28;20021;-77
2022/07/28 04:54:52;;;;;;;14.23;7.65;;;;;;;;;;5053598;28;20194;-77
2022/07/28 04:57:19;;;;;;;9.93;7.30;;;;;;;;;;5053675;28;20033;-77
2022/07/28 04:59:45;;;;;;;11.02;8.18;;;;;;;;;;5053577;28;20467;-76
2022/07/28 05:02:11;;;;;;;20.70;9.45;;;;;;;;;;5053490;28;20492;-76
2022/07/28 05:04:38;;;;;;;15.27;7.65;;;;;;;;;;5050152;28;20112;-78
2022/07/28 05:07:05;;;;;;;9.27;7.35;;;;;;;;;;5066418;28;20043;-77
2022/07/28 05:09:31;;;;;;;23.50;8.77;;;;;;;;;;5072583;28;20108;-77
2022/07/28 05:11:57;;;;;;;18.35;9.48;;;;;;;;;;5072170;28;20133;-78
2022/07/28 05:14:24;;;;;;;14.30;9.18;;;;;;;;;;5071274;28;20041;-77
2022/07/28 05:16:50;;;;;;;16.05;10.32;;;;;;;;;;5072812;28;20387;-78
2022/07/28 05:19:16;;;;;;;20.13;9.65;;;;;;;;;;5071884;28;20087;-78
2022/07/28 05:21:42;;;;;;;20.15;9.88;;;;;;;;;;5058473;28;20033;-76
2022/07/28 05:24:08;;;;;;;14.73;10.07;;;;;;;;;;5052819;28;20037;-77
2022/07/28 05:26:34;;;;;;;14.80;9.52;;;;;;;;;;5052971;28;20112;-75
2022/07/28 05:29:00;;;;;;;16.98;9.23;;;;;;;;;;5052983;28;20051;-77
2022/07/28 05:31:26;;;;;;;17.83;9.48;;;;;;;;;;5052735;28;20056;-78
2022/07/28 05:33:52;;;;;;;16.75;9.80;;;;;;;;;;5052773;28;20040;-78
2022/07/28 05:36:18;;;;;;;19.70;9.20;;;;;;;;;;5052868;28;20503;-77
2022/07/28 05:38:44;;;;;;;13.73;8.13;;;;;;;;;;5052710;28;20052;-78
2022/07/28 05:41:10;;;;;;;15.77;8.40;;;;;;;;;;5052962;28;20108;-78
2022/07/28 05:43:37;;;;;;;14.07;8.68;;;;;;;;;;5052160;28;20033;-79
2022/07/28 05:46:04;;;;;;;22.63;9.52;;;;;;;;;;5055325;28;20041;-78
2022/07/28 05:48:30;;;;;;;15.18;8.27;;;;;;;;;;5053269;28;20491;-78
2022/07/28 05:50:56;;;;;;;12.68;8.57;;;;;;;;;;5035960;28;20140;-78
2022/07/28 05:53:22;;;;;;;14.20;8.52;;;;;;;;;;5054799;28;20037;-77
2022/07/28 05:55:49;;;;;;;15.35;8.85;;;;;;;;;;5054846;28;20029;-78
2022/07/28 05:58:16;;;;;;;10.60;8.00;;;;;;;;;;5054833;28;20037;-77
2022/07/28 06:00:42;;;;;;;15.70;7.93;;;;;;;;;;5054622;28;20029;-78
2022/07/28 06:03:08;;;;;;;15.00;8.63;;;;;;;;;;5054400;28;20082;-77
2022/07/28 06:05:36;;;;;;;18.35;9.30;;;;;;;;;;5054210;28;20029;-78
2022/07/28 06:08:02;;;;;;;10.80;7.18;;;;;;;;;;5054603;28;20494;-78
2022/07/28 06:11:15;;;;;;;12.32;8.10;;;;;;;;;;5054294;28;20479;-78
2022/07/28 06:13:15;;;;;;;8.70;7.22;;;;;;;;;;5043534;28;20098;-78
2022/07/28 06:15:41;;;;;;;11.18;6.72;;;;;;;;;;5036319;28;20041;-77
2022/07/28 06:18:07;;;;;;;9.48;7.13;;;;;;;;;;5059263;28;20032;-77
2022/07/28 06:20:34;;;;;;;15.95;7.95;;;;;;;;;;5066667;28;20036;-77
2022/07/28 06:23:00;;;;;;;13.27;7.03;;;;;;;;;;5062733;28;20111;-77
2022/07/28 06:25:28;;;;;;;22.05;7.03;;;;;;;;;;5054144;28;20116;-77
2022/07/28 06:27:56;;;;;;;9.90;6.95;;;;;;;;;;5053994;28;20040;-76
2022/07/28 06:30:23;;;;;;;10.30;6.70;;;;;;;;;;5054714;28;20037;-77
2022/07/28 06:32:49;;;;;;;7.85;6.70;;;;;;;;;;5065400;28;20044;-77
2022/07/28 06:35:16;;;;;;;9.52;7.25;;;;;;;;;;5070653;28;20029;-78
2022/07/28 06:37:43;;;;;;;15.77;6.90;;;;;;;;;;5073562;28;20031;-77
2022/07/28 06:40:13;;;;;;;13.60;7.28;;;;;;;;;;5073673;28;20032;-78
2022/07/28 06:42:40;;;;;;;11.40;7.03;;;;;;;;;;5073147;28;20029;-76
2022/07/28 06:45:08;;;;;;;12.30;7.05;;;;;;;;;;5073434;28;20033;-78
2022/07/28 06:47:34;;;;;;;11.55;7.10;;;;;;;;;;5073426;28;20043;-78
2022/07/28 06:50:01;;;;;;;8.55;7.00;;;;;;;;;;5073553;28;20029;-77
2022/07/28 06:52:27;;;;;;;11.68;6.95;;;;;;;;;;5068882;28;20021;-77
2022/07/28 06:54:53;;;;;;;10.85;7.22;;;;;;;;;;5063223;28;20037;-77
2022/07/28 06:57:20;;;;;;;9.38;7.25;;;;;;;;;;5072945;28;20110;-78
2022/07/28 06:59:50;;;;;;;10.35;6.93;;;;;;;;;;5073167;28;20028;-77
2022/07/28 07:02:16;;;;;;;11.18;6.65;;;;;;;;;;5072874;28;20032;-78
2022/07/28 07:04:43;;;;;;;9.57;6.53;;;;;;;;;;5071282;28;20411;-77
2022/07/28 07:07:09;;;;;;;14.45;7.00;;;;;;;;;;5063183;28;20115;-77
2022/07/28 07:09:35;;;;;;;13.40;7.18;;;;;;;;;;5073043;28;20028;-77
2022/07/28 07:12:02;;;;;;;13.45;7.88;;;;;;;;;;5073197;28;20502;-77
2022/07/28 07:14:28;;;;;;;9.38;6.70;;;;;;;;;;5073212;28;20459;-76
2022/07/28 07:16:53;;;;;;;9.75;7.32;;;;;;;;;;5073192;28;20077;-76
2022/07/28 07:19:20;;;;;;;12.45;7.70;;;;;;;;;;5072911;28;20032;-77
2022/07/28 07:21:47;;;;;;;14.95;7.57;;;;;;;;;;5063886;28;20028;-75
2022/07/28 07:24:13;;;;;;;11.65;7.07;;;;;;;;;;5072207;28;20029;-78
2022/07/28 07:26:39;;;;;;;14.20;7.28;;;;;;;;;;5061329;28;20036;-77
2022/07/28 07:29:06;;;;;;;11.27;6.95;;;;;;;;;;5059119;28;20479;-76
2022/07/28 07:31:33;;;;;;;12.70;7.53;;;;;;;;;;5055466;28;20522;-77
2022/07/28 07:33:59;;;;;;;11.30;6.60;;;;;;;;;;5052497;28;20111;-77
2022/07/28 07:36:25;;;;;;;8.27;6.28;;;;;;;;;;5052465;28;20025;-78
2022/07/28 07:38:51;;;;;;;9.55;6.90;;;;;;;;;;5056778;28;20479;-77
2022/07/28 07:41:17;;;;;;;10.82;6.50;;;;;;;;;;5052181;28;20033;-79
2022/07/28 07:43:46;;;;;;;10.20;7.00;;;;;;;;;;5051533;28;20451;-79
2022/07/28 07:46:13;;;;;;;11.27;7.10;;;;;;;;;;5051843;28;20061;-75
2022/07/28 07:48:39;;;;;;;10.32;6.80;;;;;;;;;;5054518;28;20028;-75
2022/07/28 07:51:05;;;;;;;10.80;7.05;;;;;;;;;;5059091;28;20446;-75
2022/07/28 07:53:31;;;;;;;11.88;7.00;;;;;;;;;;5054268;28;20083;-76
2022/07/28 07:55:57;;;;;;;14.10;6.80;;;;;;;;;;5051894;28;20061;-76
2022/07/28 07:58:23;;;;;;;9.60;6.97;;;;;;;;;;5051711;28;20067;-77
2022/07/28 08:00:49;;;;;;;9.82;7.43;;;;;;;;;;5051840;28;20114;-78
2022/07/28 08:03:16;;;;;;;10.15;6.50;;;;;;;;;;5034103;28;20036;-77
2022/07/28 08:05:42;;;;;;;11.88;7.30;;;;;;;;;;5051602;28;20103;-76
2022/07/28 08:08:08;;;;;;;10.85;7.00;;;;;;;;;;5061974;28;20124;-77
2022/07/28 08:10:36;;;;;;;8.40;6.80;;;;;;;;;;5072076;28;20470;-76
2022/07/28 08:13:04;;;;;;;14.30;7.28;;;;;;;;;;5068762;28;20036;-76
2022/07/28 08:15:29;;;;;;;9.70;7.22;;;;;;;;;;5068812;28;20313;-75
2022/07/28 08:17:55;;;;;;;11.13;6.63;;;;;;;;;;5061229;28;20040;-77
2022/07/28 08:20:21;;;;;;;8.80;6.28;;;;;;;;;;5075439;28;20436;-78
2022/07/28 08:22:53;;;;;;;11.10;6.65;;;;;;;;;;5074732;28;20087;-76
2022/07/28 08:25:19;;;;;;;9.63;6.80;;;;;;;;;;5056582;28;20033;-77
2022/07/28 08:27:45;;;;;;;13.98;7.90;;;;;;;;;;5072262;28;20031;-76
2022/07/28 08:30:17;;;;;;;11.75;6.63;;;;;;;;;;5059176;28;20049;-77
2022/07/28 08:32:44;;;;;;;11.40;6.50;;;;;;;;;;5055804;28;20040;-75
2022/07/28 08:35:10;;;;;;;7.90;6.70;;;;;;;;;;5055700;28;20036;-77
2022/07/28 08:37:38;;;;;;;10.55;6.95;;;;;;;;;;5073360;28;20032;-75
2022/07/28 08:40:13;;;;;;;8.48;6.75;;;;;;;;;;5071294;28;20472;-76
2022/07/28 08:42:51;;;;;;;14.50;7.10;;;;;;;;;;5066268;28;20029;-78
2022/07/28 08:45:19;;;;;;;12.02;6.18;;;;;;;;;;5066653;28;20032;-76
2022/07/28 08:47:48;;;;;;;8.30;6.93;;;;;;;;;;5074529;28;20041;-75
2022/07/28 08:50:15;;;;;;;8.18;6.60;;;;;;;;;;5073377;28;20498;-79
2022/07/28 08:52:44;;;;;;;8.07;6.70;;;;;;;;;;5064635;28;20033;-78
2022/07/28 08:55:11;;;;;;;12.55;6.90;;;;;;;;;;5054313;28;20075;-76
2022/07/28 08:57:41;;;;;;;9.45;6.47;;;;;;;;;;5054216;28;20476;-77
2022/07/28 09:00:11;;;;;;;12.27;7.38;;;;;;;;;;5053679;28;20025;-74
2022/07/28 09:02:41;;;;;;;11.70;7.63;;;;;;;;;;5058252;28;20029;-76
2022/07/28 09:05:08;;;;;;;9.10;6.80;;;;;;;;;;5054441;28;20108;-77
2022/07/28 09:07:40;;;;;;;8.43;6.30;;;;;;;;;;5059372;28;20029;-76
2022/07/28 09:10:07;;;;;;;12.73;7.13;;;;;;;;;;5063148;28;20043;-76
2022/07/28 09:12:35;;;;;;;10.88;7.15;;;;;;;;;;5068281;28;20032;-77
2022/07/28 09:15:05;;;;;;;10.80;6.85;;;;;;;;;;5073915;28;20036;-78
2022/07/28 09:17:32;;;;;;;8.05;6.63;;;;;;;;;;5074553;28;20036;-79
2022/07/28 09:19:58;;;;;;;9.63;6.55;;;;;;;;;;5055873;28;20040;-78
2022/07/28 09:22:25;;;;;;;10.93;6.50;;;;;;;;;;5073536;28;20028;-79
2022/07/28 09:24:51;;;;;;;9.77;6.80;;;;;;;;;;5073521;28;20046;-79
2022/07/28 09:27:19;;;;;;;9.98;6.60;;;;;;;;;;5074189;28;20032;-76
2022/07/28 09:29:47;;;;;;;7.82;6.35;;;;;;;;;;5074488;28;20116;-79
2022/07/28 09:32:18;;;;;;;10.63;6.90;;;;;;;;;;5057533;28;20035;-77
2022/07/28 09:34:46;;;;;;;9.70;6.90;;;;;;;;;;5052528;28;20069;-78
2022/07/28 09:37:20;;;;;;;9.35;6.63;;;;;;;;;;5054435;28;20033;-79
2022/07/28 09:39:48;;;;;;;9.32;6.57;;;;;;;;;;5068497;28;20039;-79
2022/07/28 09:42:19;;;;;;;9.77;6.50;;;;;;;;;;5063466;28;20115;-78
2022/07/28 09:45:00;;;;;;;9.20;6.82;;;;;;;;;;5067704;28;20094;-74
2022/07/28 09:47:30;;;;;;;9.23;7.80;;;;;;;;;;5054640;28;20044;-77
2022/07/28 09:49:56;;;;;;;8.82;6.65;;;;;;;;;;5054670;28;20128;-81
2022/07/28 09:52:34;;;;;;;9.25;6.65;;;;;;;;;;5056595;28;20056;-76
2022/07/28 09:55:09;;;;;;;9.95;6.82;;;;;;;;;;5070461;28;20033;-77
2022/07/28 09:57:38;;;;;;;10.20;7.72;;;;;;;;;;5067551;28;20488;-79
2022/07/28 10:00:08;;;;;;;6.95;6.25;;;;;;;;;;5064457;28;20387;-78
2022/07/28 10:02:37;;;;;;;;;;;;;;;;;;5074753;28;20036;-80
2022/07/28 10:05:04;;;;;;;8.70;7.40;;;;;;;;;;5075793;28;19978;-79
2022/07/28 10:07:31;;;;;;;10.93;7.45;;;;;;;;;;5074749;28;20085;-78
2022/07/28 10:10:07;;;;;;;11.20;7.03;;;;;;;;;;5074550;28;20088;-80
2022/07/28 10:12:35;;;;;;;8.05;7.25;;;;;;;;;;5074835;28;20032;-80
2022/07/28 10:18:04;;;;;;;10.27;6.75;;;;;;;;;;5060701;28;20033;-79
2022/07/28 10:20:31;;;;;;;9.40;6.90;;;;;;;;;;5074434;28;20040;-79
2022/07/28 10:23:02;;;;;;;10.75;7.05;;;;;;;;;;5070724;28;20384;-81
2022/07/28 10:25:33;;;;;;;11.40;7.25;;;;;;;;;;5058717;28;20029;-78
2022/07/28 10:28:01;;;;;;;9.15;7.13;;;;;;;;;;5053494;28;20124;-79
2022/07/28 10:30:30;;;;;;;7.28;6.25;;;;;;;;;;5052234;28;20044;-78
2022/07/28 10:33:04;;;;;;;10.52;7.07;;;;;;;;;;5053859;28;20040;-79
2022/07/28 10:35:31;;;;;;;9.15;7.20;;;;;;;;;;5055110;28;20365;-74
2022/07/28 10:38:04;;;;;;;7.45;6.65;;;;;;;;;;5052291;28;20037;-76
2022/07/28 10:40:41;;;;;;;8.43;6.85;;;;;;;;;;5054033;28;20029;-78
2022/07/28 10:43:07;;;;;;;8.05;7.22;;;;;;;;;;5054529;28;20071;-79
2022/07/28 10:45:37;;;;;;;9.27;7.07;;;;;;;;;;5037603;28;20064;-77
2022/07/28 10:48:07;;;;;;;7.75;6.95;;;;;;;;;;5053317;28;20029;-80
2022/07/28 10:50:36;;;;;;;9.40;7.20;;;;;;;;;;5052789;28;20123;-77
2022/07/28 10:53:03;;;;;;;8.80;7.57;;;;;;;;;;5053596;28;20029;-75
2022/07/28 10:55:31;;;;;;;8.50;6.63;;;;;;;;;;5051210;28;20590;-74
2022/07/28 10:58:16;;;;;;;14.63;7.13;;;;;;;;;;5052255;28;20036;-78
2022/07/28 11:00:49;;;;;;;8.82;6.90;;;;;;;;;;5053189;28;20400;-76
2022/07/28 11:03:34;;;;;;;8.00;6.68;;;;;;;;;;5065736;28;20092;-76
2022/07/28 11:06:22;;;;;;;10.93;6.65;;;;;;;;;;5073156;28;20502;-76
2022/07/28 11:08:48;;;;;;;10.63;5.97;;;;;;;;;;5068844;28;20029;-73
2022/07/28 11:11:14;;;;;;;13.15;8.15;;;;;;;;;;5071844;28;20444;-73
2022/07/28 11:13:40;;;;;;;7.72;5.88;;;;;;;;;;5053663;28;20058;-72
2022/07/28 11:16:12;;;;;;;8.02;5.65;;;;;;;;;;5052359;28;20082;-73
2022/07/28 11:19:15;;;;;;;10.98;5.90;;;;;;;;;;5057412;28;20067;-75
2022/07/28 11:22:18;;;;;;;5.97;5.30;;;;;;;;;;4991080;28;20061;-75
2022/07/28 11:24:56;;;;;;;6.45;5.63;;;;;;;;;;5052778;28;20051;-76
2022/07/28 11:27:49;;;;;;;14.70;10.30;;;;;;;;;;5052499;28;20235;-76
2022/07/28 11:30:15;;;;;;;7.95;6.10;;;;;;;;;;5021452;28;20041;-77
2022/07/28 11:33:02;;;;;;;7.25;5.38;;;;;;;;;;5052477;28;20482;-76
2022/07/28 11:35:28;;;;;;;8.43;5.82;;;;;;;;;;5052050;28;20033;-77
2022/07/28 11:38:02;;;;;;;5.90;5.30;;;;;;;;;;5052266;28;20045;-76
2022/07/28 11:40:34;;;;;;;10.75;9.23;;;;;;;;;;5052361;28;20112;-77
2022/07/28 11:43:21;;;;;;;11.35;7.25;;;;;;;;;;5066422;28;20549;-77
2022/07/28 11:45:49;;;;;;;6.50;5.63;;;;;;;;;;5072311;28;20036;-73
2022/07/28 11:48:20;;;;;;;6.57;5.68;;;;;;;;;;5071782;28;20051;-77
2022/07/28 11:51:04;;;;;;;7.30;6.10;;;;;;;;;;5072014;28;20392;-78
2022/07/28 11:53:43;;;;;;;6.72;5.28;;;;;;;;;;5072598;28;20463;-75
2022/07/28 11:56:21;;;;;;;9.23;6.03;;;;;;;;;;5071920;28;20024;-78
2022/07/28 11:58:58;;;;;;;6.40;5.40;;;;;;;;;;5067865;28;20025;-78
2022/07/28 12:01:24;;;;;;;12.07;6.22;;;;;;;;;;5050915;28;20031;-74
2022/07/28 12:03:52;;;;;;;6.53;5.57;;;;;;;;;;5050645;28;20388;-74
2022/07/28 12:06:20;;;;;;;7.55;5.70;;;;;;;;;;5051785;28;20029;-76
2022/07/28 12:08:57;;;;;;;5.35;4.85;;;;;;;;;;5051426;28;20118;-76
2022/07/28 12:11:25;;;;;;;6.45;5.25;;;;;;;;;;5051874;28;20036;-74
2022/07/28 12:13:59;;;;;;;7.55;5.68;;;;;;;;;;5052571;28;20189;-75
2022/07/28 12:16:30;;;;;;;8.02;6.78;;;;;;;;;;5053292;28;20143;-79
2022/07/28 12:18:56;;;;;;;10.32;5.78;;;;;;;;;;5052901;28;20160;-78
2022/07/28 12:21:43;;;;;;;7.57;5.85;;;;;;;;;;5052727;28;20103;-76
2022/07/28 12:24:11;;;;;;;9.77;5.90;;;;;;;;;;5054069;28;20039;-77
2022/07/28 12:26:39;;;;;;;12.68;11.07;;;;;;;;;;5061607;28;20029;-78
2022/07/28 12:29:06;;;;;;;7.80;5.22;;;;;;;;;;5057320;28;20033;-75
2022/07/28 12:31:32;;;;;;;10.55;5.60;;;;;;;;;;5072309;28;20071;-77
2022/07/28 12:33:59;;;;;;;12.10;5.72;;;;;;;;;;5072460;28;20082;-76
2022/07/28 12:36:27;;;;;;;7.10;5.53;;;;;;;;;;5072522;28;20441;-77
2022/07/28 12:38:53;;;;;;;6.65;5.55;;;;;;;;;;5053902;28;20033;-73
2022/07/28 12:41:19;;;;;;;8.75;7.65;;;;;;;;;;5052298;28;20051;-77
2022/07/28 12:43:53;;;;;;;8.70;5.82;;;;;;;;;;5052190;28;20044;-76
2022/07/28 12:46:26;;;;;;;8.20;5.40;;;;;;;;;;5052545;28;20039;-75
2022/07/28 12:48:56;;;;;;;6.88;5.50;;;;;;;;;;5052238;28;20037;-75
2022/07/28 12:51:40;;;;;;;7.80;5.45;;;;;;;;;;5034244;28;20037;-77
2022/07/28 12:54:08;;;;;;;11.80;5.40;;;;;;;;;;5052054;28;20083;-76
2022/07/28 12:56:48;;;;;;;5.28;4.78;;;;;;;;;;5052183;28;20113;-75
2022/07/28 12:59:17;;;;;;;5.97;5.25;;;;;;;;;;5052184;28;20056;-75
2022/07/28 13:01:47;;;;;;;7.55;5.80;;;;;;;;;;5055778;28;20032;-73
2022/07/28 13:04:14;;;;;;;8.40;5.32;;;;;;;;;;5055352;28;20120;-76
2022/07/28 13:06:40;;;;;;;8.13;5.15;;;;;;;;;;5055667;28;20037;-76
2022/07/28 13:09:07;;;;;;;7.18;5.32;;;;;;;;;;5055676;28;20037;-75
2022/07/28 13:11:33;;;;;;;6.45;5.53;;;;;;;;;;5055588;28;20032;-73
2022/07/28 13:14:00;;;;;;;7.93;5.10;;;;;;;;;;5055528;28;20040;-75
2022/07/28 13:16:27;;;;;;;7.57;4.95;;;;;;;;;;5055605;28;20388;-73
2022/07/28 13:18:56;;;;;;;6.20;5.43;;;;;;;;;;5055684;28;20528;-75
2022/07/28 13:21:42;;;;;;;9.00;5.38;;;;;;;;;;5055450;28;20048;-74
2022/07/28 13:24:14;;;;;;;6.78;5.50;;;;;;;;;;5055297;28;20491;-73
2022/07/28 13:26:41;;;;;;;;;;;;;;;;;;5055918;28;20112;-73
2022/07/28 13:29:09;;;;;;;6.95;4.90;;;;;;;;;;5055183;28;20315;-76
2022/07/28 13:31:35;;;;;;;6.60;5.18;;;;;;;;;;5055156;28;20087;-72
2022/07/28 13:34:03;;;;;;;7.25;5.15;;;;;;;;;;5069249;28;20060;-72
2022/07/28 13:36:29;;;;;;;8.57;5.50;;;;;;;;;;5075103;28;20029;-73
2022/07/28 13:38:56;;;;;;;6.93;5.25;;;;;;;;;;5074881;28;20036;-73
2022/07/28 13:41:22;;;;;;;7.35;5.45;;;;;;;;;;5063837;28;20408;-73
2022/07/28 13:43:48;;;;;;;6.93;5.00;;;;;;;;;;5054766;28;20048;-73
2022/07/28 13:46:17;;;;;;;6.72;4.82;;;;;;;;;;5054871;28;20391;-73
2022/07/28 13:48:44;;;;;;;5.70;5.10;;;;;;;;;;5054336;28;20476;-73
2022/07/28 13:51:11;;;;;;;10.50;4.97;;;;;;;;;;5054386;28;20079;-73
2022/07/28 13:53:37;;;;;;;7.75;5.38;;;;;;;;;;5059090;28;20101;-73
2022/07/28 13:56:04;;;;;;;8.20;4.43;;;;;;;;;;5074736;28;20452;-74
2022/07/28 13:58:30;;;;;;;9.93;5.07;;;;;;;;;;5074227;28;20037;-76
2022/07/28 14:00:57;;;;;;;8.27;5.03;;;;;;;;;;5074413;28;20028;-73
2022/07/28 14:03:24;;;;;;;7.80;5.22;;;;;;;;;;5074410;28;20036;-74
2022/07/28 14:05:50;;;;;;;6.72;5.28;;;;;;;;;;5074194;28;20106;-74
2022/07/28 14:08:18;;;;;;;7.40;5.00;;;;;;;;;;5074580;28;20028;-74
2022/07/28 14:10:49;;;;;;;6.85;4.60;;;;;;;;;;5056569;28;20032;-75
2022/07/28 14:13:16;;;;;;;9.40;4.87;;;;;;;;;;5073180;28;20521;-77
2022/07/28 14:15:43;;;;;;;5.57;4.60;;;;;;;;;;5074338;28;20032;-74
2022/07/28 14:18:10;;;;;;;7.45;4.78;;;;;;;;;;5072702;28;20037;-74
2022/07/28 14:20:36;;;;;;;7.13;4.70;;;;;;;;;;5054012;28;20036;-76
2022/07/28 14:23:03;;;;;;;10.52;4.40;;;;;;;;;;5054034;28;20033;-75
2022/07/28 14:25:29;;;;;;;5.05;4.10;;;;;;;;;;5053977;28;20036;-74
2022/07/28 14:27:55;;;;;;;6.10;4.38;;;;;;;;;;5053926;28;20029;-76
2022/07/28 14:30:27;;;;;;;8.38;4.80;;;;;;;;;;5053598;28;20049;-76
2022/07/28 14:32:54;;;;;;;5.90;4.65;;;;;;;;;;5052830;28;20033;-83
2022/07/28 14:35:21;;;;;;;6.30;4.72;;;;;;;;;;5052233;28;20029;-80
2022/07/28 14:37:47;;;;;;;13.30;4.88;;;;;;;;;;5052786;28;20472;-77
2022/07/28 14:40:15;;;;;;;5.65;4.60;;;;;;;;;;5052578;28;20029;-79
2022/07/28 14:42:40;;;;;;;6.45;4.70;;;;;;;;;;5036299;28;20041;-77
2022/07/28 14:45:07;;;;;;;6.00;4.65;;;;;;;;;;5054072;28;20423;-77